LFBF

Toulouse-Francazal (BA 101) Air Base

Airport
ICAO code
LFBF
Summary
ICAO Region
EUR
ICAO Territory
Location

, Midi-Pyrenees

Serving
Toulouse
Elevation
535 ft
Coordinates
43° 32' 44" N , 1° 22' 3" E
Metar
LFBF 040400Z AUTO 28004KT 9999 SCT034 03/01 Q1015

Runways

Designator Length Width Surface Rops
12/30 1800 45 ASP No/No

Airport map

Aerial View

SKYbrary Partners:

Safety knowledge contributed by: